Time;durP1;ratioP1;P1;durP2;ratioP2;P2;SDS_P1;SDS_P2;PMS_P1;PMS_P2;Temp;Humidity;BMP_temperature;BMP_pressure;BME280_temperature;BME280_humidity;BME280_pressure;Samples;Min_cycle;Max_cycle;Signal;HPM_P1;HPM_P2
2023/10/23 00:00:03;;;;;;;13.00;10.70;;;;;;;8.26;100.00;98784.34;109596;1250;61110;-67
2023/10/23 00:02:30;;;;;;;10.70;9.40;;;;;;;8.25;100.00;98792.73;109557;1250;64984;-67
2023/10/23 00:04:58;;;;;;;11.10;8.60;;;;;;;8.25;100.00;98794.72;109588;1250;59242;-67
2023/10/23 00:07:24;;;;;;;9.60;8.40;;;;;;;8.24;100.00;98796.50;109589;1250;60547;-67
2023/10/23 00:09:51;;;;;;;9.80;8.00;;;;;;;8.24;100.00;98800.59;109620;1250;66047;-67
2023/10/23 00:12:17;;;;;;;9.80;7.80;;;;;;;8.24;100.00;98802.55;109565;1250;59999;-67
2023/10/23 00:14:44;;;;;;;13.50;8.10;;;;;;;8.23;100.00;98799.95;109576;1251;59064;-67
2023/10/23 00:17:10;;;;;;;10.30;8.30;;;;;;;8.22;100.00;98800.91;109580;1250;58928;-66
2023/10/23 00:19:36;;;;;;;11.30;9.50;;;;;;;8.22;100.00;98803.04;109338;1251;59070;-66
2023/10/23 00:22:03;;;;;;;15.00;9.30;;;;;;;8.22;100.00;98809.77;109558;1250;59059;-66
2023/10/23 00:24:29;;;;;;;11.70;8.80;;;;;;;8.23;100.00;98808.43;109651;1250;59010;-66
2023/10/23 00:26:56;;;;;;;9.80;8.40;;;;;;;8.25;100.00;98808.47;109584;1250;59105;-66
2023/10/23 00:29:22;;;;;;;10.30;8.10;;;;;;;8.26;100.00;98814.13;109587;1250;59289;-67
2023/10/23 00:31:49;;;;;;;9.20;8.10;;;;;;;8.25;100.00;98817.69;109458;1251;59048;-66
2023/10/23 00:34:15;;;;;;;12.90;8.40;;;;;;;8.25;100.00;98813.98;109623;1250;59386;-66
2023/10/23 00:36:42;;;;;;;10.30;8.10;;;;;;;8.25;100.00;98812.77;109594;1250;58978;-66
2023/10/23 00:39:08;;;;;;;9.80;8.10;;;;;;;8.25;100.00;98812.92;109573;1250;59076;-67
2023/10/23 00:41:35;;;;;;;13.10;8.30;;;;;;;8.24;100.00;98816.15;109584;1250;58965;-66
2023/10/23 00:44:02;;;;;;;10.70;8.00;;;;;;;8.23;100.00;98817.48;109600;1250;59006;-66
2023/10/23 00:46:30;;;;;;;10.70;8.30;;;;;;;8.20;100.00;98814.63;109568;1251;66031;-66
2023/10/23 00:48:58;;;;;;;10.20;7.70;;;;;;;8.19;100.00;98816.33;109589;1250;60015;-67
2023/10/23 00:51:27;;;;;;;20.30;7.70;;;;;;;8.16;100.00;98819.66;109363;1251;62812;-66
2023/10/23 00:53:55;;;;;;;7.60;6.20;;;;;;;8.11;100.00;98825.76;109536;1250;59063;-66
2023/10/23 00:56:22;;;;;;;6.60;5.90;;;;;;;8.06;100.00;98828.58;109573;1250;58956;-66
2023/10/23 00:58:49;;;;;;;9.10;6.70;;;;;;;8.00;100.00;98829.80;109568;1250;65669;-67
2023/10/23 01:01:17;;;;;;;8.40;7.50;;;;;;;7.95;100.00;98838.59;109605;1250;59065;-67
2023/10/23 01:03:43;;;;;;;9.20;8.30;;;;;;;7.90;100.00;98836.94;109562;1250;65232;-67
2023/10/23 01:06:12;;;;;;;9.00;8.00;;;;;;;7.85;100.00;98835.45;109577;1250;58970;-67
2023/10/23 01:08:39;;;;;;;16.50;14.80;;;;;;;7.81;100.00;98835.89;109509;1251;59204;-67
2023/10/23 01:11:05;;;;;;;15.00;13.40;;;;;;;7.78;100.00;98835.88;109562;1250;65724;-67
2023/10/23 01:13:32;;;;;;;17.50;15.80;;;;;;;7.76;100.00;98837.08;109600;1250;61020;-67
2023/10/23 01:15:58;;;;;;;16.90;15.20;;;;;;;7.75;100.00;98838.36;109557;1250;59373;-67
2023/10/23 01:18:25;;;;;;;12.00;10.90;;;;;;;7.75;100.00;98834.30;109555;1251;59030;-67
2023/10/23 01:20:51;;;;;;;13.90;11.60;;;;;;;7.74;100.00;98837.17;109584;1250;58866;-67
2023/10/23 01:23:18;;;;;;;13.70;12.20;;;;;;;7.75;100.00;98838.52;109571;1250;66088;-67
2023/10/23 01:25:44;;;;;;;11.40;10.30;;;;;;;7.76;100.00;98838.63;109611;1250;59754;-67
2023/10/23 01:28:11;;;;;;;10.60;9.60;;;;;;;7.76;100.00;98840.38;109581;1250;62841;-66
2023/10/23 01:30:40;;;;;;;11.50;10.40;;;;;;;7.78;100.00;98836.23;109617;1250;58971;-67
2023/10/23 01:33:06;;;;;;;9.10;8.20;;;;;;;7.81;100.00;98835.52;109574;1250;58885;-67
2023/10/23 01:35:33;;;;;;;15.50;12.90;;;;;;;7.84;100.00;98835.16;109559;1250;65742;-66
2023/10/23 01:38:00;;;;;;;15.00;13.50;;;;;;;7.89;100.00;98834.52;109643;1250;59019;-66
2023/10/23 01:40:26;;;;;;;18.40;14.80;;;;;;;7.94;100.00;98837.79;109590;1250;62857;-66
2023/10/23 01:42:53;;;;;;;14.00;12.60;;;;;;;7.97;100.00;98834.91;109529;1250;59034;-66
2023/10/23 01:45:19;;;;;;;12.10;11.00;;;;;;;8.01;100.00;98835.95;109615;1250;58996;-67
2023/10/23 01:47:46;;;;;;;12.40;11.20;;;;;;;8.05;100.00;98837.80;109416;1251;67215;-67
2023/10/23 01:50:12;;;;;;;13.30;10.80;;;;;;;8.10;100.00;98839.67;109556;1250;60168;-67
2023/10/23 01:52:41;;;;;;;13.80;11.20;;;;;;;8.14;100.00;98836.95;109554;1251;59548;-67
2023/10/23 01:55:08;;;;;;;14.30;12.80;;;;;;;8.19;100.00;98839.14;109541;1250;59246;-67
2023/10/23 01:57:35;;;;;;;13.10;11.80;;;;;;;8.24;100.00;98836.53;109583;1250;58991;-67
2023/10/23 02:00:29;;;;;;;14.60;11.90;;;;;;;8.28;100.00;98835.21;109607;1250;64920;-67
2023/10/23 02:02:56;;;;;;;13.50;12.00;;;;;;;8.32;100.00;98832.47;109579;1250;59054;-67
2023/10/23 02:05:22;;;;;;;14.00;12.50;;;;;;;8.34;100.00;98829.72;109574;1251;64433;-67
2023/10/23 02:07:49;;;;;;;15.30;11.90;;;;;;;8.36;100.00;98829.94;109523;1250;59083;-67
2023/10/23 02:10:15;;;;;;;16.40;14.60;;;;;;;8.40;100.00;98833.31;109605;1250;60556;-67
2023/10/23 02:12:42;;;;;;;20.00;16.60;;;;;;;8.42;100.00;98833.88;109584;1250;58944;-67
2023/10/23 02:15:10;;;;;;;20.00;17.90;;;;;;;8.44;100.00;98836.21;109588;1251;61232;-67
2023/10/23 02:17:38;;;;;;;20.40;18.20;;;;;;;8.47;100.00;98836.21;109563;1250;62536;-68
2023/10/23 02:20:05;;;;;;;21.60;18.70;;;;;;;8.50;100.00;98833.93;109522;1251;58995;-67
2023/10/23 02:22:33;;;;;;;19.80;17.60;;;;;;;8.51;100.00;98832.25;109618;1250;58864;-67
2023/10/23 02:25:00;;;;;;;19.10;17.10;;;;;;;8.52;100.00;98832.57;109597;1250;64838;-66
2023/10/23 02:27:26;;;;;;;19.00;16.10;;;;;;;8.51;100.00;98831.54;109573;1251;60795;-68
2023/10/23 02:29:52;;;;;;;20.10;16.40;;;;;;;8.50;100.00;98830.38;109573;1250;59488;-67
2023/10/23 02:32:19;;;;;;;18.40;15.40;;;;;;;8.48;100.00;98831.95;109572;1250;59520;-66
2023/10/23 02:34:47;;;;;;;16.80;15.10;;;;;;;8.46;100.00;98835.38;109581;1251;59093;-67
2023/10/23 02:37:14;;;;;;;18.00;16.20;;;;;;;8.44;100.00;98838.54;109574;1250;66881;-67
2023/10/23 02:39:40;;;;;;;21.50;17.30;;;;;;;8.41;100.00;98835.90;109606;1250;58986;-67
2023/10/23 02:42:07;;;;;;;19.20;17.30;;;;;;;8.38;100.00;98837.66;109409;1251;59052;-67
2023/10/23 02:44:33;;;;;;;17.50;15.80;;;;;;;8.37;100.00;98836.98;109595;1250;59011;-67
2023/10/23 02:47:00;;;;;;;18.90;16.90;;;;;;;8.36;100.00;98842.31;109587;1250;59029;-68
2023/10/23 02:49:26;;;;;;;19.10;16.90;;;;;;;8.33;100.00;98846.73;109570;1251;59057;-67
2023/10/23 02:51:53;;;;;;;16.90;15.20;;;;;;;8.31;100.00;98849.73;109596;1250;58979;-67
2023/10/23 02:54:19;;;;;;;17.10;15.30;;;;;;;8.28;100.00;98849.00;109534;1251;59139;-67
2023/10/23 02:56:49;;;;;;;17.10;13.90;;;;;;;8.25;100.00;98846.73;109523;1251;58940;-67
2023/10/23 02:59:15;;;;;;;16.10;13.60;;;;;;;8.24;100.00;98849.25;109586;1251;59024;-67
2023/10/23 03:01:42;;;;;;;14.70;13.30;;;;;;;8.21;100.00;98849.92;109580;1251;65760;-67
2023/10/23 03:04:08;;;;;;;16.10;14.50;;;;;;;8.17;100.00;98852.84;109616;1250;59112;-67
2023/10/23 03:06:35;;;;;;;16.00;14.10;;;;;;;8.13;100.00;98853.08;109594;1250;59091;-67
2023/10/23 03:09:03;;;;;;;14.70;13.30;;;;;;;8.12;100.00;98854.90;109611;1250;59033;-67
2023/10/23 03:11:29;;;;;;;14.20;12.70;;;;;;;8.12;100.00;98855.10;109610;1250;58941;-67
2023/10/23 03:13:56;;;;;;;16.30;14.00;;;;;;;8.12;100.00;98855.09;109626;1251;59584;-68
2023/10/23 03:16:24;;;;;;;18.40;15.30;;;;;;;8.11;100.00;98854.81;109560;1251;58955;-67
2023/10/23 03:18:52;;;;;;;19.70;17.50;;;;;;;8.09;100.00;98853.88;109574;1250;65024;-67
2023/10/23 03:21:19;;;;;;;19.20;17.20;;;;;;;8.07;100.00;98856.29;109540;1251;59227;-67
2023/10/23 03:23:45;;;;;;;20.00;17.80;;;;;;;8.03;100.00;98855.63;109636;1251;59358;-67
2023/10/23 03:26:12;;;;;;;18.70;16.80;;;;;;;8.00;100.00;98853.14;109559;1250;58990;-68
2023/10/23 03:28:38;;;;;;;21.80;19.40;;;;;;;7.98;100.00;98852.76;109600;1250;59480;-67
2023/10/23 03:31:04;;;;;;;21.20;18.60;;;;;;;7.95;100.00;98852.41;109585;1251;59055;-67
2023/10/23 03:33:32;;;;;;;23.90;21.40;;;;;;;7.92;100.00;98853.44;109539;1250;59017;-67
2023/10/23 03:35:58;;;;;;;25.40;22.90;;;;;;;7.89;100.00;98855.72;109534;1250;58961;-67
2023/10/23 03:38:25;;;;;;;24.60;21.40;;;;;;;7.86;100.00;98853.23;109581;1250;58965;-67
2023/10/23 03:40:59;;;;;;;24.10;21.30;;;;;;;7.83;100.00;98851.48;109617;1251;61261;-67
2023/10/23 03:43:26;;;;;;;23.60;19.60;;;;;;;7.80;100.00;98850.44;109542;1251;65239;-66
2023/10/23 03:45:52;;;;;;;23.40;21.20;;;;;;;7.78;100.00;98853.54;109561;1250;58973;-67
2023/10/23 03:48:19;;;;;;;21.40;19.10;;;;;;;7.76;100.00;98858.98;109400;1251;59503;-67
2023/10/23 03:50:45;;;;;;;22.00;19.70;;;;;;;7.74;100.00;98862.64;109545;1252;66046;-68
2023/10/23 03:53:12;;;;;;;21.90;19.50;;;;;;;7.71;100.00;98860.49;109558;1251;60207;-67
2023/10/23 03:55:39;;;;;;;21.80;19.60;;;;;;;7.67;100.00;98862.48;109546;1250;63809;-67
2023/10/23 03:58:05;;;;;;;18.00;15.50;;;;;;;7.64;100.00;98864.78;109567;1251;59211;-67
2023/10/23 04:00:32;;;;;;;17.60;15.90;;;;;;;7.60;100.00;98864.64;109607;1250;59162;-68
2023/10/23 04:02:59;;;;;;;17.80;16.10;;;;;;;7.57;100.00;98862.35;109395;1250;64526;-68
2023/10/23 04:05:25;;;;;;;19.70;17.10;;;;;;;7.53;100.00;98863.67;109626;1250;59159;-67
2023/10/23 04:07:52;;;;;;;17.80;16.10;;;;;;;7.44;100.00;98862.38;109502;1251;63899;-67
2023/10/23 04:10:18;;;;;;;15.80;14.30;;;;;;;7.35;100.00;98859.02;109552;1250;59799;-67
2023/10/23 04:12:45;;;;;;;18.10;16.30;;;;;;;7.29;100.00;98864.97;109563;1250;58888;-66
2023/10/23 04:15:11;;;;;;;19.60;17.70;;;;;;;7.29;100.00;98870.48;109583;1251;59388;-67
2023/10/23 04:17:38;;;;;;;23.90;21.50;;;;;;;7.27;100.00;98867.93;109591;1250;59366;-66
2023/10/23 04:20:05;;;;;;;30.90;27.80;;;;;;;7.24;100.00;98864.20;109560;1250;59412;-67
2023/10/23 04:22:31;;;;;;;30.40;27.40;;;;;;;7.24;100.00;98862.95;109549;1251;59308;-66
2023/10/23 04:24:58;;;;;;;35.70;32.10;;;;;;;7.25;100.00;98868.20;109567;1250;59044;-67
2023/10/23 04:27:24;;;;;;;28.00;25.10;;;;;;;7.27;100.00;98871.98;109532;1250;59591;-67
2023/10/23 04:29:51;;;;;;;28.70;25.80;;;;;;;7.29;100.00;98875.23;109587;1251;58961;-67
2023/10/23 04:32:17;;;;;;;30.10;26.80;;;;;;;7.31;100.00;98883.60;109612;1251;59274;-68
2023/10/23 04:34:44;;;;;;;33.30;28.60;;;;;;;7.33;100.00;98887.95;109543;1251;59040;-67
2023/10/23 04:37:10;;;;;;;33.80;29.30;;;;;;;7.35;100.00;98887.28;109579;1251;59009;-67
2023/10/23 04:39:37;;;;;;;26.40;23.80;;;;;;;7.36;100.00;98887.38;109569;1251;59200;-67
2023/10/23 04:42:04;;;;;;;26.60;23.80;;;;;;;7.38;100.00;98887.66;109584;1251;59246;-67
2023/10/23 04:44:30;;;;;;;26.80;24.10;;;;;;;7.37;100.00;98889.63;109524;1251;63805;-66
2023/10/23 04:46:57;;;;;;;27.80;25.00;;;;;;;7.39;100.00;98891.82;109378;1251;59338;-68
2023/10/23 04:49:23;;;;;;;22.10;19.90;;;;;;;7.40;100.00;98891.93;109628;1250;59128;-67
2023/10/23 04:51:50;;;;;;;22.50;20.20;;;;;;;7.36;100.00;98893.23;109584;1251;59345;-67
2023/10/23 04:54:16;;;;;;;21.80;19.50;;;;;;;7.30;100.00;98893.39;109576;1251;59224;-67
2023/10/23 04:56:43;;;;;;;22.40;20.20;;;;;;;7.25;100.00;98901.06;109593;1250;63755;-67
2023/10/23 04:59:10;;;;;;;24.20;21.80;;;;;;;7.24;100.00;98908.89;109582;1250;58988;-67
2023/10/23 05:01:36;;;;;;;26.00;23.40;;;;;;;7.25;100.00;98910.96;109591;1251;61159;-67
2023/10/23 05:04:03;;;;;;;26.80;24.00;;;;;;;7.25;100.00;98913.98;109574;1251;66397;-67
2023/10/23 05:06:30;;;;;;;26.90;24.20;;;;;;;7.24;100.00;98916.14;109587;1251;59871;-67
2023/10/23 05:08:56;;;;;;;35.50;30.80;;;;;;;7.25;100.00;98914.15;109551;1250;59058;-67
2023/10/23 05:11:23;;;;;;;28.30;25.50;;;;;;;7.27;100.00;98915.84;109527;1251;59061;-67
2023/10/23 05:13:50;;;;;;;32.10;28.70;;;;;;;7.29;100.00;98921.22;109572;1251;59071;-68
2023/10/23 05:16:17;;;;;;;32.50;29.40;;;;;;;7.30;100.00;98927.16;109525;1251;66071;-68
2023/10/23 05:18:43;;;;;;;35.10;28.70;;;;;;;7.33;100.00;98931.04;109552;1254;59642;-67
2023/10/23 05:21:11;;;;;;;33.30;29.80;;;;;;;7.34;100.00;98930.27;109572;1251;59139;-67
2023/10/23 05:23:41;;;;;;;30.70;27.40;;;;;;;7.36;100.00;98931.23;109622;1250;58947;-67
2023/10/23 05:26:10;;;;;;;;;;;;;;;7.38;100.00;98937.50;109578;1251;59263;-68
2023/10/23 05:28:41;;;;;;;27.80;25.00;;;;;;;7.39;100.00;98939.75;109575;1250;64415;-67
2023/10/23 05:31:09;;;;;;;27.10;24.30;;;;;;;7.41;100.00;98945.09;109543;1251;59059;-68
2023/10/23 05:33:35;;;;;;;28.70;25.80;;;;;;;7.43;100.00;98946.92;109528;1251;64089;-74
2023/10/23 05:36:04;;;;;;;28.50;25.50;;;;;;;7.45;100.00;98948.77;109511;1251;59446;-69
2023/10/23 05:38:31;;;;;;;32.00;28.80;;;;;;;7.47;100.00;98950.09;109570;1251;59751;-72
2023/10/23 05:40:58;;;;;;;35.90;31.90;;;;;;;7.47;100.00;98950.77;109590;1250;66103;-71
2023/10/23 05:43:26;;;;;;;34.60;31.00;;;;;;;7.51;100.00;98948.42;109577;1251;59970;-71
2023/10/23 05:45:56;;;;;;;34.20;30.80;;;;;;;7.56;100.00;98952.26;109235;1250;63935;-73
2023/10/23 05:48:23;;;;;;;33.30;29.90;;;;;;;7.61;100.00;98955.51;109520;1251;59333;-72
2023/10/23 05:51:02;;;;;;;34.40;30.80;;;;;;;7.64;100.00;98959.71;109600;1250;59073;-72
2023/10/23 05:53:29;;;;;;;36.80;32.90;;;;;;;7.68;100.00;98961.09;109519;1254;66193;-72
2023/10/23 05:56:06;;;;;;;35.70;32.00;;;;;;;7.74;100.00;98963.27;109624;1250;61320;-71
2023/10/23 05:58:33;;;;;;;36.30;32.70;;;;;;;7.80;100.00;98960.27;109376;1251;64147;-72
2023/10/23 06:01:07;;;;;;;35.10;31.50;;;;;;;7.86;100.00;98955.52;109515;1251;59086;-72
2023/10/23 06:03:35;;;;;;;32.00;28.60;;;;;;;7.91;100.00;98954.84;109550;1251;58979;-71
2023/10/23 06:06:02;;;;;;;31.80;28.50;;;;;;;7.98;100.00;98958.74;109552;1251;66107;-72
2023/10/23 06:08:28;;;;;;;36.40;32.60;;;;;;;8.04;100.00;98958.57;109573;1251;60120;-69
2023/10/23 06:10:55;;;;;;;35.30;31.70;;;;;;;8.09;100.00;98962.85;109567;1250;62616;-68
2023/10/23 06:13:21;;;;;;;35.50;32.10;;;;;;;8.18;100.00;98963.05;109534;1251;58993;-69
2023/10/23 06:15:48;;;;;;;34.00;30.40;;;;;;;8.28;100.00;98962.27;109610;1251;59000;-68
2023/10/23 06:18:15;;;;;;;32.50;29.30;;;;;;;8.38;100.00;98966.01;109538;1251;65908;-69
2023/10/23 06:20:41;;;;;;;32.10;29.00;;;;;;;8.45;100.00;98966.29;109549;1251;59978;-68
2023/10/23 06:23:08;;;;;;;34.90;31.50;;;;;;;8.52;100.00;98967.50;109543;1251;64107;-68
2023/10/23 06:25:34;;;;;;;37.70;33.80;;;;;;;8.60;100.00;98970.93;109524;1251;59052;-68
2023/10/23 06:28:03;;;;;;;36.80;33.30;;;;;;;8.68;100.00;98972.54;109541;1251;59005;-69
2023/10/23 06:30:29;;;;;;;35.60;32.10;;;;;;;8.76;100.00;98976.67;109588;1251;67204;-68
2023/10/23 06:32:57;;;;;;;35.70;32.00;;;;;;;8.87;100.00;98977.30;109507;1251;60393;-68
2023/10/23 06:35:24;;;;;;;34.20;30.60;;;;;;;8.96;100.00;98974.58;109558;1251;64107;-68
2023/10/23 06:37:50;;;;;;;36.70;33.20;;;;;;;9.07;100.00;98971.46;109412;1251;59127;-68
2023/10/23 06:40:17;;;;;;;45.00;40.20;;;;;;;9.18;100.00;98973.27;109574;1251;59016;-68
2023/10/23 06:42:43;;;;;;;46.80;42.00;;;;;;;9.29;100.00;98971.67;109568;1251;59345;-68
2023/10/23 06:45:10;;;;;;;43.80;39.40;;;;;;;9.42;100.00;98972.12;109558;1251;60292;-68
2023/10/23 06:47:37;;;;;;;38.00;34.20;;;;;;;9.58;100.00;98971.70;109504;1250;64053;-68
2023/10/23 06:50:04;;;;;;;33.10;28.70;;;;;;;9.72;100.00;98969.34;109520;1251;59038;-68
2023/10/23 06:52:32;;;;;;;31.50;28.10;;;;;;;9.85;100.00;98974.37;109554;1251;59102;-68
2023/10/23 06:54:59;;;;;;;30.20;27.10;;;;;;;9.95;100.00;98976.20;109582;1250;66674;-68
2023/10/23 06:57:26;;;;;;;27.50;24.40;;;;;;;10.02;100.00;98975.05;109602;1251;59565;-68
2023/10/23 06:59:54;;;;;;;28.80;25.70;;;;;;;10.05;100.00;98970.41;109494;1252;62711;-68
2023/10/23 07:02:21;;;;;;;28.20;25.30;;;;;;;10.06;100.00;98975.45;109542;1251;58970;-68
2023/10/23 07:04:47;;;;;;;31.20;27.90;;;;;;;10.10;100.00;98976.81;109604;1250;59081;-68
2023/10/23 07:07:14;;;;;;;27.20;24.30;;;;;;;10.14;100.00;98977.30;109591;1250;65715;-68
2023/10/23 07:09:40;;;;;;;30.70;22.70;;;;;;;10.18;100.00;98976.65;109569;1251;59290;-68
2023/10/23 07:12:07;;;;;;;28.10;21.50;;;;;;;10.24;100.00;98978.57;109537;1251;59131;-69
2023/10/23 07:14:39;;;;;;;28.90;25.30;;;;;;;10.32;100.00;98979.50;109578;1251;58989;-68
2023/10/23 07:17:06;;;;;;;27.50;24.90;;;;;;;10.43;100.00;98980.36;109342;1254;58973;-68
2023/10/23 07:19:32;;;;;;;36.10;32.70;;;;;;;10.55;100.00;98979.59;109356;1254;59662;-69
2023/10/23 07:21:59;;;;;;;23.80;21.50;;;;;;;10.67;100.00;98986.42;109377;1254;59103;-68
2023/10/23 07:24:25;;;;;;;20.30;18.20;;;;;;;10.80;100.00;98988.70;109353;1254;59071;-68
2023/10/23 07:26:52;;;;;;;21.70;19.50;;;;;;;10.91;100.00;98989.52;109332;1253;59060;-68
2023/10/23 07:29:18;;;;;;;21.70;19.40;;;;;;;10.98;100.00;98984.64;109335;1254;59078;-68
2023/10/23 07:31:45;;;;;;;21.80;19.70;;;;;;;11.07;100.00;98982.80;109395;1254;58969;-68
2023/10/23 07:34:11;;;;;;;23.30;18.80;;;;;;;11.18;100.00;98981.83;109338;1253;59568;-68
2023/10/23 07:36:38;;;;;;;21.90;19.60;;;;;;;11.26;100.00;98991.08;109189;1254;59208;-68
2023/10/23 07:39:05;;;;;;;21.70;19.00;;;;;;;11.33;100.00;98987.70;109327;1253;59106;-68
2023/10/23 07:41:31;;;;;;;20.60;18.40;;;;;;;11.43;100.00;98989.92;109353;1254;59187;-68
2023/10/23 07:43:58;;;;;;;17.70;15.90;;;;;;;11.49;100.00;98989.84;109328;1254;66996;-68
2023/10/23 07:46:24;;;;;;;17.80;16.00;;;;;;;11.54;100.00;98990.21;109238;1254;59026;-68
2023/10/23 07:48:51;;;;;;;18.00;16.20;;;;;;;11.58;100.00;98994.15;109504;1251;59036;-68
2023/10/23 07:51:17;;;;;;;19.70;16.00;;;;;;;11.63;100.00;98995.21;109572;1251;59264;-68
2023/10/23 07:53:44;;;;;;;19.30;15.80;;;;;;;11.71;100.00;99001.73;109560;1251;58943;-68
2023/10/23 07:56:14;;;;;;;18.50;16.60;;;;;;;11.82;100.00;99009.34;109602;1251;67242;-68
2023/10/23 07:58:41;;;;;;;19.50;16.80;;;;;;;11.92;100.00;99007.95;109514;1251;59096;-68
2023/10/23 08:01:11;;;;;;;21.70;17.70;;;;;;;12.00;100.00;99004.34;109599;1251;64062;-68
2023/10/23 08:03:38;;;;;;;18.40;16.50;;;;;;;12.09;100.00;99007.22;109470;1251;59323;-67
2023/10/23 08:06:07;;;;;;;18.30;16.40;;;;;;;12.20;100.00;99008.03;109598;1250;59029;-69
2023/10/23 08:08:38;;;;;;;23.60;21.40;;;;;;;12.33;100.00;99005.48;109588;1251;65724;-68
2023/10/23 08:11:07;;;;;;;27.00;24.40;;;;;;;12.45;100.00;99005.28;109590;1254;59755;-68
2023/10/23 08:13:34;;;;;;;20.50;18.30;;;;;;;12.56;100.00;99003.74;109601;1251;64037;-68
2023/10/23 08:16:01;;;;;;;16.40;13.90;;;;;;;12.68;100.00;99006.23;109530;1251;59046;-68
2023/10/23 08:18:27;;;;;;;18.20;15.10;;;;;;;12.77;100.00;99007.91;109566;1251;58866;-68
2023/10/23 08:20:54;;;;;;;19.20;13.60;;;;;;;12.84;100.00;99004.55;109460;1251;59354;-68
2023/10/23 08:23:20;;;;;;;17.00;13.20;;;;;;;12.92;100.00;99005.89;109597;1251;59702;-68
2023/10/23 08:25:47;;;;;;;16.40;13.10;;;;;;;12.94;100.00;99004.61;109433;1251;63765;-68
2023/10/23 08:28:14;;;;;;;14.60;12.70;;;;;;;12.98;100.00;99000.82;109582;1251;59509;-68
2023/10/23 08:30:40;;;;;;;18.50;16.60;;;;;;;13.01;100.00;98995.92;109541;1250;58966;-67
2023/10/23 08:33:07;;;;;;;22.30;17.20;;;;;;;13.05;100.00;99000.93;109574;1251;66049;-67
2023/10/23 08:35:34;;;;;;;18.80;16.30;;;;;;;13.16;100.00;99004.77;109560;1254;70330;-69
2023/10/23 08:38:00;;;;;;;17.40;15.40;;;;;;;13.28;100.00;99003.15;109585;1251;64039;-68
2023/10/23 08:40:27;;;;;;;16.40;13.60;;;;;;;13.37;100.00;99006.16;109588;1251;59063;-67
2023/10/23 08:42:53;;;;;;;19.50;13.70;;;;;;;13.50;100.00;99004.81;109594;1251;59262;-67
2023/10/23 08:45:20;;;;;;;20.10;14.60;;;;;;;13.65;100.00;99005.02;109586;1250;67131;-68
2023/10/23 08:47:47;;;;;;;14.60;11.90;;;;;;;13.77;100.00;99011.39;109409;1251;59049;-68
2023/10/23 08:50:13;;;;;;;14.00;12.10;;;;;;;13.85;100.00;99011.08;109579;1251;64540;-67
2023/10/23 08:52:46;;;;;;;16.90;12.10;;;;;;;13.97;100.00;99008.22;109490;1250;59447;-68
2023/10/23 08:55:14;;;;;;;14.70;12.30;;;;;;;14.10;100.00;99006.10;109482;1251;58956;-68
2023/10/23 08:57:52;;;;;;;14.40;12.10;;;;;;;14.23;100.00;99008.95;109589;1250;64640;-67
2023/10/23 09:00:22;;;;;;;16.40;11.80;;;;;;;14.30;100.00;99018.56;109541;1251;59065;-68
2023/10/23 09:02:50;;;;;;;14.40;12.60;;;;;;;14.36;100.00;99023.08;109512;1251;63805;-68
2023/10/23 09:05:18;;;;;;;15.60;12.60;;;;;;;14.49;100.00;99018.45;109561;1251;58958;-67
2023/10/23 09:07:45;;;;;;;16.80;11.80;;;;;;;14.63;100.00;99017.52;109439;1251;169204;-68
2023/10/23 09:10:12;;;;;;;14.70;11.40;;;;;;;14.77;100.00;99016.85;109524;1250;64480;-68
2023/10/23 09:12:42;;;;;;;14.50;11.10;;;;;;;14.90;100.00;99015.02;109561;1251;59958;-68
2023/10/23 09:15:16;;;;;;;11.90;10.40;;;;;;;15.01;100.00;99014.07;109534;1251;64556;-68
2023/10/23 09:17:43;;;;;;;16.40;10.80;;;;;;;15.02;100.00;99010.57;109494;1256;59002;-68
2023/10/23 09:20:16;;;;;;;19.10;11.60;;;;;;;15.04;100.00;99011.90;109554;1251;59032;-68
2023/10/23 09:22:47;;;;;;;37.20;18.70;;;;;;;15.11;100.00;99014.11;109590;1251;73368;-68
2023/10/23 09:25:18;;;;;;;39.40;19.00;;;;;;;15.21;100.00;99015.64;109340;1259;59122;-69
2023/10/23 09:27:45;;;;;;;21.40;12.00;;;;;;;15.33;100.00;99014.21;109306;1254;64079;-69
2023/10/23 09:30:30;;;;;;;21.00;11.50;;;;;;;15.41;100.00;99014.80;109290;1254;59158;-68
2023/10/23 09:32:57;;;;;;;15.40;10.00;;;;;;;15.46;100.00;99019.21;109321;1253;58842;-69
2023/10/23 09:35:25;;;;;;;14.50;10.50;;;;;;;15.48;100.00;99019.70;109259;1254;67221;-68
2023/10/23 09:37:51;;;;;;;14.80;9.00;;;;;;;15.49;100.00;99018.39;109326;1254;60403;-68
2023/10/23 09:40:18;;;;;;;12.90;8.90;;;;;;;15.48;100.00;99018.48;109334;1254;65208;-68
2023/10/23 09:42:45;;;;;;;12.40;8.30;;;;;;;15.43;100.00;99021.94;109314;1254;59135;-68
2023/10/23 09:45:12;;;;;;;15.80;9.20;;;;;;;15.45;100.00;99018.75;109324;1254;61126;-68
2023/10/23 09:47:39;;;;;;;14.30;9.10;;;;;;;15.50;100.00;99015.98;109138;1254;66564;-69
2023/10/23 09:50:06;;;;;;;17.50;8.80;;;;;;;15.52;100.00;99015.63;109331;1253;61635;-68
2023/10/23 09:52:35;;;;;;;16.60;9.00;;;;;;;15.48;100.00;99017.37;109361;1254;65023;-68
2023/10/23 09:55:05;;;;;;;15.20;8.40;;;;;;;15.46;100.00;99009.71;109307;1254;59121;-68
2023/10/23 09:57:32;;;;;;;15.00;7.80;;;;;;;15.45;100.00;99004.40;109357;1251;59235;-68
2023/10/23 10:00:07;;;;;;;17.60;8.20;;;;;;;15.48;100.00;99002.84;109617;1251;64826;-68
2023/10/23 10:02:35;;;;;;;9.90;6.20;;;;;;;15.51;100.00;99001.39;109587;1251;59416;-68
2023/10/23 10:05:06;;;;;;;12.60;6.20;;;;;;;15.46;100.00;98999.45;109532;1250;65022;-68
2023/10/23 10:07:50;;;;;;;9.40;5.20;;;;;;;15.37;100.00;98997.91;109383;1254;59074;-68
2023/10/23 10:10:17;;;;;;;10.50;6.00;;;;;;;15.27;100.00;98999.54;109602;1251;59097;-68
2023/10/23 10:12:44;;;;;;;9.70;5.80;;;;;;;15.27;100.00;99000.23;109592;1251;65833;-68
2023/10/23 10:15:11;;;;;;;8.70;6.00;;;;;;;15.33;100.00;98998.48;109569;1250;61202;-68
2023/10/23 10:17:42;;;;;;;10.20;5.90;;;;;;;15.41;100.00;98992.80;109578;1251;64460;-68
2023/10/23 10:20:09;;;;;;;;;;;;;;;15.46;100.00;98987.84;109531;1251;59318;-68
2023/10/23 10:22:39;;;;;;;8.20;5.30;;;;;;;15.54;100.00;98982.84;109590;1251;58880;-68
2023/10/23 10:25:09;;;;;;;5.90;4.00;;;;;;;15.60;100.00;98975.48;109621;1251;66090;-68
2023/10/23 10:27:36;;;;;;;9.40;4.70;;;;;;;15.65;100.00;98979.23;109611;1251;60702;-68
2023/10/23 10:30:07;;;;;;;7.90;4.30;;;;;;;15.63;100.00;98976.34;109584;1251;59087;-68
2023/10/23 10:32:34;;;;;;;8.70;4.50;;;;;;;15.65;100.00;98970.79;109531;1251;59121;-68
2023/10/23 10:35:03;;;;;;;9.30;4.70;;;;;;;15.70;100.00;98965.88;109470;1251;58960;-69
2023/10/23 10:37:31;;;;;;;13.10;4.60;;;;;;;15.75;100.00;98964.38;109611;1251;66693;-68
2023/10/23 10:39:58;;;;;;;9.10;4.20;;;;;;;15.82;100.00;98966.66;109664;1251;61157;-68
2023/10/23 10:42:29;;;;;;;7.40;4.10;;;;;;;15.86;100.00;98965.94;109597;1251;64913;-68
2023/10/23 10:45:09;;;;;;;7.90;4.20;;;;;;;15.88;100.00;98966.09;109646;1251;59165;-67
2023/10/23 10:47:43;;;;;;;10.20;5.30;;;;;;;15.93;100.00;98964.08;109616;1251;59190;-68
2023/10/23 10:50:10;;;;;;;8.20;4.10;;;;;;;15.98;100.00;98963.25;109636;1251;67020;-67
2023/10/23 10:52:39;;;;;;;8.30;4.70;;;;;;;16.02;100.00;98959.78;109583;1251;59031;-67
2023/10/23 10:55:11;;;;;;;8.10;4.70;;;;;;;16.04;100.00;98959.98;109510;1251;64248;-69
2023/10/23 10:57:44;;;;;;;8.30;5.00;;;;;;;16.12;100.00;98955.48;109610;1251;58973;-68
2023/10/23 11:00:12;;;;;;;7.80;5.10;;;;;;;16.18;100.00;98953.11;109598;1251;59016;-68
2023/10/23 11:02:39;;;;;;;7.70;4.40;;;;;;;16.23;100.00;98947.87;109601;1250;65672;-68
2023/10/23 11:05:09;;;;;;;5.30;3.90;;;;;;;16.27;100.00;98947.02;109361;1251;59837;-68
2023/10/23 11:07:37;;;;;;;6.90;4.30;;;;;;;16.27;100.00;98946.99;109629;1251;64969;-68
2023/10/23 11:10:12;;;;;;;6.30;3.60;;;;;;;16.24;100.00;98947.05;109381;1251;60190;-68